Time;durP1;ratioP1;P1;durP2;ratioP2;P2;SDS_P1;SDS_P2;PMS_P1;PMS_P2;Temp;Humidity;BMP_temperature;BMP_pressure;BME280_temperature;BME280_humidity;BME280_pressure;Samples;Min_cycle;Max_cycle;Signal;HPM_P1;HPM_P2
2021/10/10 00:02:00;;;;;;;17.97;13.07;;;9.50;99.90;;;;;;5048579;28;20267;-71
2021/10/10 00:04:26;;;;;;;15.53;12.47;;;9.50;99.90;;;;;;5034485;28;20534;-72
2021/10/10 00:06:51;;;;;;;12.93;11.53;;;9.50;99.90;;;;;;5032501;28;20209;-71
2021/10/10 00:09:17;;;;;;;13.40;10.83;;;9.50;99.90;;;;;;5034008;28;20180;-71
2021/10/10 00:11:42;;;;;;;14.97;11.27;;;9.50;99.90;;;;;;5033883;28;20218;-71
2021/10/10 00:14:08;;;;;;;13.90;11.40;;;9.50;99.90;;;;;;5033838;27;20645;-72
2021/10/10 00:16:33;;;;;;;14.53;10.50;;;9.50;99.90;;;;;;5033629;28;20198;-72
2021/10/10 00:18:59;;;;;;;13.55;12.05;;;9.60;99.90;;;;;;5030802;28;20418;-72
2021/10/10 00:21:25;;;;;;;14.13;11.67;;;9.60;99.90;;;;;;5032157;28;20178;-71
2021/10/10 00:23:50;;;;;;;14.37;10.90;;;9.60;99.90;;;;;;5032507;28;20186;-72
2021/10/10 00:26:16;;;;;;;12.07;10.67;;;9.60;99.90;;;;;;5031911;28;20296;-72
2021/10/10 00:28:41;;;;;;;12.47;10.57;;;9.60;99.90;;;;;;5031552;28;20172;-72
2021/10/10 00:31:07;;;;;;;14.43;11.17;;;9.50;99.90;;;;;;5033788;28;20180;-72
2021/10/10 00:33:32;;;;;;;13.57;11.07;;;9.50;99.90;;;;;;5033065;28;20199;-71
2021/10/10 00:35:58;;;;;;;12.20;10.00;;;9.50;99.90;;;;;;5033033;28;20192;-71
2021/10/10 00:38:23;;;;;;;13.57;10.60;;;9.50;99.90;;;;;;5033365;28;20199;-72
2021/10/10 00:40:49;;;;;;;16.67;11.80;;;9.50;99.90;;;;;;5014672;28;20215;-72
2021/10/10 00:43:14;;;;;;;13.70;11.27;;;9.40;99.90;;;;;;5025390;27;20195;-72
2021/10/10 00:45:48;;;;;;;14.63;11.20;;;9.40;99.90;;;;;;5032687;28;20193;-72
2021/10/10 00:48:13;;;;;;;13.57;10.90;;;9.40;99.90;;;;;;5050280;28;20182;-70
2021/10/10 00:50:39;;;;;;;13.40;11.27;;;9.40;99.90;;;;;;5043238;28;20791;-72
2021/10/10 00:53:07;;;;;;;13.53;11.40;;;9.40;99.90;;;;;;5024690;28;20243;-72
2021/10/10 00:55:34;;;;;;;13.93;11.00;;;9.50;99.90;;;;;;5012885;28;20202;-71
2021/10/10 00:58:02;;;;;;;13.67;10.77;;;9.50;99.90;;;;;;5013040;28;20403;-72
2021/10/10 01:00:28;;;;;;;14.83;9.97;;;9.50;99.90;;;;;;5012901;27;20454;-71
2021/10/10 01:02:57;;;;;;;13.97;11.30;;;9.50;99.90;;;;;;5014004;28;20506;-71
2021/10/10 01:05:23;;;;;;;13.27;10.63;;;9.40;99.90;;;;;;5012765;28;20436;-72
2021/10/10 01:07:49;;;;;;;13.20;11.40;;;9.40;99.90;;;;;;5012143;28;20498;-72
2021/10/10 01:10:15;;;;;;;13.70;10.70;;;9.30;99.90;;;;;;5012660;28;20455;-71
2021/10/10 01:12:42;;;;;;;12.40;10.90;;;9.40;99.90;;;;;;5030669;28;20266;-70
2021/10/10 01:15:09;;;;;;;12.17;10.27;;;9.30;99.90;;;;;;5037459;27;20207;-72
2021/10/10 01:17:36;;;;;;;16.63;11.17;;;9.30;99.90;;;;;;5033053;28;20416;-71
2021/10/10 01:20:04;;;;;;;14.00;11.03;;;9.30;99.90;;;;;;5032636;28;20406;-72
2021/10/10 01:22:30;;;;;;;11.83;10.60;;;9.40;99.90;;;;;;5032518;28;20425;-72
2021/10/10 01:24:56;;;;;;;17.13;10.10;;;9.40;99.90;;;;;;5032460;28;20786;-72
2021/10/10 01:27:21;;;;;;;14.20;11.50;;;9.30;99.90;;;;;;5031727;28;20625;-72
2021/10/10 01:29:47;;;;;;;15.60;11.30;;;9.30;99.90;;;;;;5017482;28;20481;-72
2021/10/10 01:32:12;;;;;;;12.30;10.13;;;9.30;99.90;;;;;;5012558;27;20242;-72
2021/10/10 01:34:43;;;;;;;12.23;10.70;;;9.30;99.90;;;;;;5011998;28;20568;-72
2021/10/10 01:37:09;;;;;;;13.20;11.27;;;9.20;99.90;;;;;;5012081;28;20411;-72
2021/10/10 01:39:34;;;;;;;14.33;11.03;;;9.30;99.90;;;;;;5011586;28;20449;-72
2021/10/10 01:42:00;;;;;;;15.23;10.73;;;9.20;99.90;;;;;;5013059;27;20258;-73
2021/10/10 01:44:25;;;;;;;13.87;10.20;;;9.20;99.90;;;;;;5013786;28;20161;-72
2021/10/10 01:46:51;;;;;;;14.00;12.50;;;9.20;99.90;;;;;;5021309;28;20834;-72
2021/10/10 01:49:16;;;;;;;14.97;11.30;;;9.20;99.90;;;;;;5013638;28;20636;-72
2021/10/10 01:51:43;;;;;;;13.03;10.37;;;9.30;99.90;;;;;;5012790;28;20213;-72
2021/10/10 01:54:08;;;;;;;13.90;10.70;;;9.30;99.90;;;;;;5012710;28;20174;-71
2021/10/10 01:56:34;;;;;;;11.93;10.70;;;9.20;99.90;;;;;;5011730;28;20441;-72
2021/10/10 01:58:59;;;;;;;13.67;9.93;;;9.20;99.90;;;;;;5011929;28;20653;-71
2021/10/10 02:01:25;;;;;;;13.53;10.13;;;9.30;99.90;;;;;;5012716;27;20230;-72
2021/10/10 02:03:51;;;;;;;11.33;9.70;;;9.20;99.90;;;;;;5011607;28;20175;-72
2021/10/10 02:06:16;;;;;;;11.83;9.60;;;9.10;99.90;;;;;;5011885;28;20675;-72
2021/10/10 02:08:42;;;;;;;13.60;10.40;;;9.00;99.90;;;;;;5012046;28;20656;-72
2021/10/10 02:11:07;;;;;;;14.50;10.37;;;8.90;99.90;;;;;;5011951;28;20625;-72
2021/10/10 02:13:33;;;;;;;13.60;10.70;;;8.90;99.90;;;;;;5011404;27;20199;-72
2021/10/10 02:15:58;;;;;;;11.30;9.73;;;9.00;99.90;;;;;;5011667;28;20196;-72
2021/10/10 02:18:24;;;;;;;15.73;10.20;;;9.00;99.90;;;;;;5012314;28;20616;-72
2021/10/10 02:20:51;;;;;;;16.40;9.50;;;9.00;99.90;;;;;;5011751;28;20172;-72
2021/10/10 02:23:17;;;;;;;13.50;10.50;;;8.90;99.90;;;;;;5010170;28;20185;-72
2021/10/10 02:25:43;;;;;;;13.43;10.57;;;8.70;99.90;;;;;;5011151;28;20507;-72
2021/10/10 02:28:09;;;;;;;14.57;10.50;;;8.60;99.90;;;;;;5011490;27;20535;-71
2021/10/10 02:30:34;;;;;;;13.17;10.60;;;8.60;99.90;;;;;;5011277;28;20506;-72
2021/10/10 02:33:00;;;;;;;12.10;10.10;;;8.60;99.90;;;;;;5010845;28;20681;-72
2021/10/10 02:35:25;;;;;;;12.90;10.90;;;8.50;99.90;;;;;;5010111;28;20713;-72
2021/10/10 02:37:51;;;;;;;14.87;10.83;;;8.50;99.90;;;;;;5011455;28;20180;-72
2021/10/10 02:40:17;;;;;;;15.50;12.40;;;8.40;99.90;;;;;;5011015;28;20232;-72
2021/10/10 02:42:42;;;;;;;17.40;11.50;;;8.30;99.90;;;;;;5019572;27;20191;-72
2021/10/10 02:45:09;;;;;;;12.57;10.53;;;8.30;99.90;;;;;;5030729;28;20190;-72
2021/10/10 02:47:34;;;;;;;13.20;10.93;;;8.40;99.90;;;;;;5030091;28;20182;-72
2021/10/10 02:50:00;;;;;;;12.23;10.90;;;8.50;99.90;;;;;;5030513;28;20442;-72
2021/10/10 02:52:26;;;;;;;15.27;11.50;;;8.50;99.90;;;;;;5030882;28;20286;-72
2021/10/10 02:54:51;;;;;;;12.27;10.90;;;8.50;99.90;;;;;;5030692;28;20628;-72
2021/10/10 02:57:18;;;;;;;20.10;11.30;;;8.60;99.90;;;;;;5019350;28;20180;-72
2021/10/10 02:59:43;;;;;;;14.43;10.47;;;8.50;99.90;;;;;;5012644;28;20171;-72
2021/10/10 03:02:09;;;;;;;13.03;11.57;;;8.50;99.90;;;;;;5013372;28;20410;-72
2021/10/10 03:04:35;;;;;;;15.03;11.40;;;8.40;99.90;;;;;;5012039;28;20176;-72
2021/10/10 03:07:00;;;;;;;13.97;9.97;;;8.40;99.90;;;;;;5010388;27;20668;-72
2021/10/10 03:09:26;;;;;;;13.40;10.90;;;8.50;99.90;;;;;;5010984;28;20171;-72
2021/10/10 03:11:51;;;;;;;13.63;10.30;;;8.50;99.90;;;;;;5010586;28;20221;-72
2021/10/10 03:14:17;;;;;;;12.57;10.20;;;8.60;99.90;;;;;;5011929;28;20174;-72
2021/10/10 03:16:42;;;;;;;14.90;12.10;;;8.50;99.90;;;;;;5009293;28;20445;-72
2021/10/10 03:19:08;;;;;;;13.93;11.73;;;8.50;99.90;;;;;;5010530;28;20183;-72
2021/10/10 03:21:33;;;;;;;14.20;11.50;;;8.50;99.90;;;;;;5010524;27;20236;-72
2021/10/10 03:23:59;;;;;;;14.93;11.20;;;8.30;99.90;;;;;;5011609;28;20164;-72
2021/10/10 03:26:25;;;;;;;14.13;11.03;;;8.40;99.90;;;;;;5010393;28;20278;-72
2021/10/10 03:28:50;;;;;;;14.80;11.27;;;8.40;99.90;;;;;;5018695;28;20981;-72
2021/10/10 03:31:16;;;;;;;10.63;9.57;;;8.30;99.90;;;;;;5013105;28;20184;-72
2021/10/10 03:33:42;;;;;;;14.77;11.53;;;8.40;99.90;;;;;;5010297;28;20648;-72
2021/10/10 03:36:08;;;;;;;14.83;11.83;;;8.40;99.90;;;;;;5011538;27;20216;-72
2021/10/10 03:38:33;;;;;;;13.93;11.10;;;8.50;99.90;;;;;;5010778;28;20216;-72
2021/10/10 03:40:59;;;;;;;12.47;10.80;;;8.50;99.90;;;;;;5010305;28;20442;-72
2021/10/10 03:43:24;;;;;;;12.97;9.43;;;8.60;99.90;;;;;;5009502;28;20535;-72
2021/10/10 03:45:50;;;;;;;11.77;9.80;;;8.60;99.90;;;;;;5011629;27;20215;-72
2021/10/10 03:48:15;;;;;;;12.60;11.10;;;8.50;99.90;;;;;;5010542;28;20179;-72
2021/10/10 03:50:41;;;;;;;14.00;11.97;;;8.50;99.90;;;;;;5010369;28;20198;-72
2021/10/10 03:53:06;;;;;;;13.97;11.27;;;8.40;99.90;;;;;;5010354;28;20199;-72
2021/10/10 03:55:36;;;;;;;15.17;11.33;;;8.30;99.90;;;;;;5011187;27;20660;-72
2021/10/10 03:58:02;;;;;;;16.73;11.00;;;8.30;99.90;;;;;;5009780;28;20148;-72
2021/10/10 04:00:30;;;;;;;18.10;10.90;;;8.30;99.90;;;;;;5010108;28;20440;-72
2021/10/10 04:02:58;;;;;;;15.10;11.07;;;8.30;99.90;;;;;;5014280;28;20190;-70
2021/10/10 04:08:00;;;;;;;15.80;11.17;;;8.30;99.90;;;;;;5047713;28;20425;-71
2021/10/10 04:10:26;;;;;;;14.87;11.03;;;8.20;99.90;;;;;;5038695;27;20850;-72
2021/10/10 04:12:51;;;;;;;13.57;10.00;;;8.20;99.90;;;;;;5033914;27;20477;-72
2021/10/10 04:15:17;;;;;;;14.13;10.97;;;8.20;99.90;;;;;;5033654;28;20782;-72
2021/10/10 04:17:44;;;;;;;12.30;10.50;;;8.30;99.90;;;;;;5031179;27;20179;-72
2021/10/10 04:20:11;;;;;;;13.00;11.00;;;8.30;99.90;;;;;;5028157;28;20433;-72
2021/10/10 04:22:37;;;;;;;13.67;11.03;;;8.40;99.90;;;;;;5034062;28;20443;-72
2021/10/10 04:25:04;;;;;;;11.10;9.63;;;8.40;99.90;;;;;;5034596;28;20438;-72
2021/10/10 04:27:32;;;;;;;12.27;10.97;;;8.50;99.90;;;;;;5037328;28;20510;-70
2021/10/10 04:29:57;;;;;;;14.60;10.73;;;8.40;99.90;;;;;;5053840;28;20413;-70
2021/10/10 04:32:23;;;;;;;11.67;10.40;;;8.50;99.90;;;;;;5039648;28;20461;-72
2021/10/10 04:34:48;;;;;;;13.30;10.50;;;8.40;99.90;;;;;;5034610;28;20595;-72
2021/10/10 04:37:14;;;;;;;16.80;10.90;;;8.30;99.90;;;;;;5042973;28;20183;-72
2021/10/10 04:39:39;;;;;;;14.80;11.07;;;8.20;99.90;;;;;;5031849;28;20630;-72
2021/10/10 04:42:05;;;;;;;11.97;10.67;;;8.20;99.90;;;;;;5027110;27;20180;-72
2021/10/10 04:44:31;;;;;;;12.10;10.80;;;8.20;99.90;;;;;;5013107;28;20641;-72
2021/10/10 04:46:57;;;;;;;11.03;9.53;;;8.20;99.90;;;;;;5013334;28;20493;-72
2021/10/10 04:49:23;;;;;;;12.80;10.40;;;8.20;99.90;;;;;;5013101;28;20806;-71
2021/10/10 04:51:48;;;;;;;11.53;10.20;;;8.30;99.90;;;;;;5011985;28;20199;-72
2021/10/10 04:54:14;;;;;;;15.70;10.00;;;8.30;99.90;;;;;;5030489;28;20175;-72
2021/10/10 04:56:40;;;;;;;13.97;10.97;;;8.20;99.90;;;;;;5032842;28;20282;-72
2021/10/10 04:59:06;;;;;;;13.17;10.17;;;8.30;99.90;;;;;;5034020;28;20178;-72
2021/10/10 05:01:31;;;;;;;14.83;10.47;;;8.30;99.90;;;;;;5043899;28;20445;-72
2021/10/10 05:03:57;;;;;;;13.52;10.80;;;8.30;99.90;;;;;;5032300;27;20438;-72
2021/10/10 05:06:23;;;;;;;13.57;10.50;;;8.30;99.90;;;;;;5019971;28;20295;-72
2021/10/10 05:08:48;;;;;;;10.90;9.80;;;8.30;99.90;;;;;;5019596;27;20596;-72
2021/10/10 05:11:14;;;;;;;13.53;10.60;;;8.30;99.90;;;;;;5023404;28;20193;-72
2021/10/10 05:13:39;;;;;;;12.40;9.83;;;8.30;99.90;;;;;;5015318;27;20179;-72
2021/10/10 05:16:05;;;;;;;13.23;10.33;;;8.30;99.90;;;;;;5017130;28;20563;-72
2021/10/10 05:18:31;;;;;;;12.77;9.77;;;8.30;99.90;;;;;;5014651;28;20190;-72
2021/10/10 05:20:57;;;;;;;11.20;10.00;;;8.40;99.90;;;;;;5022934;28;20194;-72
2021/10/10 05:23:22;;;;;;;12.23;9.90;;;8.30;99.90;;;;;;5025224;28;20445;-71
2021/10/10 05:25:48;;;;;;;12.20;10.90;;;8.30;99.90;;;;;;5013700;27;20223;-72
2021/10/10 05:28:13;;;;;;;12.20;9.87;;;8.30;99.90;;;;;;5022945;28;20228;-72
2021/10/10 05:30:39;;;;;;;12.97;10.90;;;8.30;99.90;;;;;;5025297;28;20587;-72
2021/10/10 05:33:04;;;;;;;12.20;9.77;;;8.20;99.90;;;;;;5021786;28;20662;-72
2021/10/10 05:35:30;;;;;;;13.13;11.00;;;8.20;99.90;;;;;;5013874;27;20234;-72
2021/10/10 05:37:56;;;;;;;13.30;10.50;;;8.20;99.90;;;;;;5017907;28;20194;-72
2021/10/10 05:40:21;;;;;;;13.87;10.37;;;8.00;99.90;;;;;;5020224;28;20259;-72
2021/10/10 05:42:47;;;;;;;11.60;10.40;;;8.00;99.90;;;;;;5023346;28;20198;-72
2021/10/10 05:45:12;;;;;;;14.80;11.77;;;8.00;99.90;;;;;;5011854;28;20204;-72
2021/10/10 05:47:38;;;;;;;14.00;11.00;;;8.00;99.90;;;;;;5013174;28;20176;-72
2021/10/10 05:50:06;;;;;;;14.20;9.77;;;7.90;99.90;;;;;;5007360;27;20194;-72
2021/10/10 05:52:31;;;;;;;14.17;10.37;;;7.90;99.90;;;;;;5021353;27;20225;-72
2021/10/10 05:54:57;;;;;;;14.17;11.63;;;7.90;99.90;;;;;;5022168;27;20953;-72
2021/10/10 05:57:42;;;;;;;12.30;10.63;;;7.90;99.90;;;;;;5019900;28;20199;-72
2021/10/10 06:00:08;;;;;;;11.50;9.97;;;8.00;99.90;;;;;;5015029;27;20203;-72
2021/10/10 06:02:34;;;;;;;13.03;10.97;;;8.00;99.90;;;;;;5072142;27;20531;-72
2021/10/10 06:04:59;;;;;;;13.47;11.10;;;7.90;99.90;;;;;;5079185;27;20460;-72
2021/10/10 06:07:25;;;;;;;13.90;11.77;;;7.80;99.90;;;;;;5090336;27;20576;-72
2021/10/10 06:09:50;;;;;;;15.80;11.00;;;7.90;99.90;;;;;;5009595;28;20196;-72
2021/10/10 06:12:16;;;;;;;13.53;10.30;;;7.90;99.90;;;;;;5009464;27;20235;-71
2021/10/10 06:14:42;;;;;;;12.73;10.60;;;7.90;99.90;;;;;;5009762;28;20567;-72
2021/10/10 06:17:07;;;;;;;14.20;10.40;;;7.90;99.90;;;;;;5008642;27;20222;-71
2021/10/10 06:19:35;;;;;;;12.10;9.93;;;7.90;99.90;;;;;;5027297;28;20456;-71
2021/10/10 06:22:01;;;;;;;12.80;11.27;;;7.90;99.90;;;;;;5028172;27;20218;-71
2021/10/10 06:24:26;;;;;;;12.27;10.00;;;7.90;99.90;;;;;;5029198;28;20918;-71
2021/10/10 06:26:52;;;;;;;13.93;10.67;;;7.90;99.90;;;;;;5022708;27;20286;-72
2021/10/10 06:29:18;;;;;;;14.87;11.10;;;7.90;99.90;;;;;;5009460;27;20322;-72
2021/10/10 06:31:43;;;;;;;13.27;10.37;;;7.90;99.90;;;;;;5019913;27;20586;-71
2021/10/10 06:34:09;;;;;;;14.37;11.10;;;8.00;99.90;;;;;;5017595;28;20294;-72
2021/10/10 06:36:34;;;;;;;11.23;10.03;;;8.00;99.90;;;;;;5022352;27;20645;-72
2021/10/10 06:39:00;;;;;;;16.10;10.30;;;8.10;99.90;;;;;;5019192;27;20695;-72
2021/10/10 06:41:26;;;;;;;14.13;10.93;;;8.10;99.90;;;;;;5027885;27;20276;-72
2021/10/10 06:43:51;;;;;;;14.60;11.00;;;8.10;99.90;;;;;;5008305;28;20521;-71
2021/10/10 06:46:17;;;;;;;14.50;11.50;;;8.10;99.90;;;;;;5008283;27;20208;-71
2021/10/10 06:48:43;;;;;;;15.47;11.00;;;8.20;99.90;;;;;;5009308;28;20195;-71
2021/10/10 06:51:09;;;;;;;14.00;10.67;;;8.20;99.90;;;;;;5006944;27;20211;-71
2021/10/10 06:53:34;;;;;;;17.07;11.43;;;8.20;99.90;;;;;;5019130;28;20249;-71
2021/10/10 06:56:04;;;;;;;12.50;11.10;;;8.30;99.90;;;;;;5027837;28;20832;-72
2021/10/10 06:58:33;;;;;;;15.27;11.30;;;8.40;99.90;;;;;;5010206;27;20207;-72
2021/10/10 07:00:58;;;;;;;15.97;12.37;;;8.40;99.90;;;;;;5043147;27;20551;-72
2021/10/10 07:03:24;;;;;;;15.00;10.87;;;8.40;99.90;;;;;;5048538;27;20915;-72
2021/10/10 07:05:49;;;;;;;15.87;11.13;;;8.50;99.90;;;;;;5019176;28;20301;-72
2021/10/10 07:08:15;;;;;;;12.70;10.20;;;8.50;99.90;;;;;;5024989;27;20218;-72
2021/10/10 07:10:41;;;;;;;15.80;11.17;;;8.50;99.90;;;;;;5035152;28;20208;-71
2021/10/10 07:13:06;;;;;;;14.93;11.30;;;8.50;99.90;;;;;;5012028;27;20232;-72
2021/10/10 07:15:33;;;;;;;12.33;11.10;;;8.50;99.90;;;;;;5011919;28;20215;-71
2021/10/10 07:18:04;;;;;;;12.27;10.87;;;8.50;99.90;;;;;;5053786;27;20314;-70
2021/10/10 07:23:54;;;;;;;13.67;11.27;;;8.60;99.90;;;;;;4975933;28;20475;-71
2021/10/10 07:26:20;;;;;;;15.00;10.63;;;8.70;99.90;;;;;;5021111;28;20844;-72
2021/10/10 07:28:45;;;;;;;14.50;11.73;;;8.90;99.90;;;;;;5026913;27;20460;-72
2021/10/10 07:31:11;;;;;;;14.97;11.00;;;8.90;99.90;;;;;;5026302;28;20881;-72
2021/10/10 07:33:36;;;;;;;12.63;11.33;;;8.90;99.90;;;;;;5032313;27;20218;-74
2021/10/10 07:36:02;;;;;;;16.40;11.33;;;9.00;99.90;;;;;;5039157;28;20216;-72
2021/10/10 07:38:28;;;;;;;14.03;11.57;;;9.10;99.90;;;;;;5022752;27;20211;-73
2021/10/10 07:40:54;;;;;;;14.77;11.27;;;9.10;99.90;;;;;;5028046;28;20442;-74
2021/10/10 07:43:21;;;;;;;17.27;12.67;;;9.20;99.90;;;;;;5027610;27;20471;-72
2021/10/10 07:45:47;;;;;;;16.87;12.73;;;9.20;99.90;;;;;;5025068;28;20219;-71
2021/10/10 07:48:13;;;;;;;14.03;11.20;;;9.30;99.90;;;;;;5010358;27;20943;-71
2021/10/10 07:50:39;;;;;;;13.27;11.67;;;9.30;99.90;;;;;;5015458;28;20547;-72
2021/10/10 07:53:06;;;;;;;14.47;12.67;;;9.40;99.90;;;;;;5010900;27;20479;-73
2021/10/10 07:55:31;;;;;;;16.00;11.80;;;9.50;99.90;;;;;;5007661;28;21011;-72
2021/10/10 07:57:58;;;;;;;14.40;11.70;;;9.60;99.90;;;;;;5016141;27;20598;-73
2021/10/10 08:00:23;;;;;;;15.77;12.33;;;9.70;99.90;;;;;;5016991;28;20216;-73
2021/10/10 08:02:56;;;;;;;17.23;12.57;;;9.70;99.90;;;;;;5028256;27;20458;-72
2021/10/10 08:05:23;;;;;;;15.37;11.17;;;9.80;99.90;;;;;;5016279;28;20293;-72
2021/10/10 08:07:50;;;;;;;14.03;12.00;;;9.90;99.90;;;;;;5012204;27;20983;-72
2021/10/10 08:10:16;;;;;;;14.60;12.00;;;10.00;99.90;;;;;;5041076;27;20880;-72
2021/10/10 08:12:42;;;;;;;14.97;11.30;;;10.10;99.90;;;;;;5021718;27;20612;-72
2021/10/10 08:15:14;;;;;;;14.70;11.60;;;10.20;99.90;;;;;;5039155;28;20429;-72
2021/10/10 08:17:39;;;;;;;12.87;10.63;;;10.30;99.90;;;;;;5023820;27;20440;-72
2021/10/10 08:20:07;;;;;;;12.80;11.33;;;10.40;99.90;;;;;;5023573;27;20463;-72
2021/10/10 08:22:37;;;;;;;12.37;10.73;;;10.50;99.90;;;;;;5018012;28;20197;-72
2021/10/10 08:25:07;;;;;;;13.97;11.80;;;10.60;99.90;;;;;;5020367;27;20463;-72
2021/10/10 08:27:34;;;;;;;13.27;11.10;;;10.70;99.90;;;;;;5008855;28;20954;-73
2021/10/10 08:30:00;;;;;;;14.57;10.73;;;10.80;99.90;;;;;;5024461;28;20866;-72
2021/10/10 08:32:25;;;;;;;12.50;11.20;;;10.90;99.90;;;;;;5016479;27;20553;-72
2021/10/10 08:34:51;;;;;;;13.57;11.33;;;11.00;99.90;;;;;;5017630;27;20668;-72
2021/10/10 08:37:16;;;;;;;13.07;11.73;;;11.10;99.90;;;;;;5022953;28;20202;-72
2021/10/10 08:39:42;;;;;;;15.90;11.03;;;11.10;99.90;;;;;;5023400;27;20234;-72
2021/10/10 08:42:11;;;;;;;16.07;11.50;;;11.20;99.90;;;;;;5026207;28;20609;-73
2021/10/10 08:44:40;;;;;;;14.67;11.47;;;11.30;99.90;;;;;;5027070;27;20575;-71
2021/10/10 08:47:07;;;;;;;14.40;10.57;;;11.40;99.90;;;;;;5028235;28;20491;-71
2021/10/10 08:49:36;;;;;;;12.30;10.80;;;11.50;99.90;;;;;;5028204;27;20468;-71
2021/10/10 08:52:03;;;;;;;13.20;11.17;;;11.60;99.90;;;;;;5026188;28;20476;-71
2021/10/10 08:54:29;;;;;;;13.40;10.57;;;11.70;99.90;;;;;;5020757;27;20818;-72
2021/10/10 08:56:56;;;;;;;12.43;11.03;;;11.80;99.90;;;;;;5045658;27;20486;-71
2021/10/10 08:59:24;;;;;;;14.10;11.00;;;11.90;99.90;;;;;;5030754;27;20216;-74
2021/10/10 09:01:52;;;;;;;16.67;11.93;;;12.00;99.90;;;;;;5008688;28;20454;-73
2021/10/10 09:04:18;;;;;;;12.13;10.33;;;12.10;99.90;;;;;;5029083;27;20465;-73
2021/10/10 09:06:43;;;;;;;14.13;10.50;;;12.20;99.90;;;;;;5035199;28;20489;-71
2021/10/10 09:09:31;;;;;;;12.03;10.70;;;12.20;99.90;;;;;;5018275;27;20310;-71
2021/10/10 09:12:10;;;;;;;14.00;10.33;;;12.40;99.90;;;;;;5015439;28;20199;-72
2021/10/10 09:14:45;;;;;;;15.17;11.10;;;12.40;99.90;;;;;;5027146;28;20504;-73
2021/10/10 09:17:16;;;;;;;11.80;10.33;;;12.60;99.90;;;;;;5031233;28;20405;-72
2021/10/10 09:19:59;;;;;;;12.27;10.33;;;12.70;99.90;;;;;;5032250;28;20590;-71
2021/10/10 09:22:26;;;;;;;13.50;10.03;;;12.80;99.90;;;;;;5032234;28;20413;-72
2021/10/10 09:24:53;;;;;;;13.53;9.40;;;12.90;99.90;;;;;;5030448;28;20428;-72
2021/10/10 09:27:30;;;;;;;11.77;8.70;;;13.00;99.90;;;;;;5032459;28;20408;-72
2021/10/10 09:29:57;;;;;;;10.00;8.90;;;13.10;99.90;;;;;;5032344;28;20858;-71
2021/10/10 09:32:26;;;;;;;11.70;8.83;;;13.30;99.90;;;;;;5031720;28;20453;-72
2021/10/10 09:34:52;;;;;;;9.97;8.63;;;13.40;99.90;;;;;;5030196;28;20410;-72
2021/10/10 09:37:26;;;;;;;12.53;8.20;;;13.60;99.90;;;;;;5032465;28;20410;-72
2021/10/10 09:40:13;;;;;;;13.03;9.10;;;13.80;99.90;;;;;;5031914;28;20155;-72
2021/10/10 09:42:42;;;;;;;14.97;8.90;;;13.90;99.90;;;;;;5031976;27;20408;-74
2021/10/10 09:45:25;;;;;;;8.77;7.60;;;14.10;99.90;;;;;;5031810;28;20807;-71
2021/10/10 09:47:55;;;;;;;10.53;7.90;;;14.20;99.90;;;;;;5031955;28;20466;-71
2021/10/10 09:50:21;;;;;;;9.10;7.70;;;14.30;99.90;;;;;;5032273;28;20445;-71
2021/10/10 09:53:02;;;;;;;8.77;7.87;;;14.40;99.90;;;;;;5031557;28;20583;-71
2021/10/10 09:55:30;;;;;;;10.73;8.23;;;14.50;99.90;;;;;;5030955;28;20429;-71
2021/10/10 09:57:56;;;;;;;9.67;8.77;;;14.50;99.30;;;;;;5029547;27;20457;-71
2021/10/10 10:00:31;;;;;;;9.97;7.60;;;14.50;99.60;;;;;;5030384;28;20609;-71
2021/10/10 10:03:02;;;;;;;11.50;8.27;;;14.70;99.90;;;;;;5032104;28;20177;-71
2021/10/10 10:05:30;;;;;;;12.50;8.60;;;14.80;99.10;;;;;;5031235;28;20510;-71
2021/10/10 10:07:57;;;;;;;9.03;7.93;;;14.90;98.80;;;;;;5020048;28;20509;-71
2021/10/10 10:10:25;;;;;;;8.50;7.60;;;14.90;98.30;;;;;;5046792;28;20749;-71
2021/10/10 10:12:51;;;;;;;9.83;8.10;;;15.00;98.10;;;;;;5018263;28;20808;-71
2021/10/10 10:15:18;;;;;;;10.13;7.70;;;15.00;97.70;;;;;;5030384;28;20493;-71
2021/10/10 10:17:46;;;;;;;9.50;8.50;;;15.00;97.90;;;;;;5029459;28;20433;-71
2021/10/10 10:20:14;;;;;;;12.30;7.97;;;15.00;97.80;;;;;;5030975;27;20441;-71
2021/10/10 10:22:42;;;;;;;10.53;8.20;;;15.00;97.40;;;;;;5030897;28;20413;-71
2021/10/10 10:25:08;;;;;;;11.00;8.20;;;15.10;97.60;;;;;;5030690;28;20445;-71
2021/10/10 10:27:34;;;;;;;9.27;8.27;;;15.10;97.90;;;;;;5030814;28;20512;-71
2021/10/10 10:30:01;;;;;;;11.17;8.23;;;15.10;97.90;;;;;;5024729;27;20446;-72
2021/10/10 10:32:29;;;;;;;8.67;7.77;;;15.20;97.80;;;;;;5029020;28;20453;-71
2021/10/10 10:34:57;;;;;;;11.90;8.30;;;15.20;97.70;;;;;;5028975;28;20425;-72
2021/10/10 10:37:43;;;;;;;11.23;9.50;;;15.30;97.80;;;;;;5029377;28;20487;-71
2021/10/10 10:40:14;;;;;;;13.30;8.63;;;15.30;97.70;;;;;;5018590;28;20907;-72
2021/10/10 10:42:41;;;;;;;9.20;8.27;;;15.50;97.80;;;;;;5029859;27;20422;-71
2021/10/10 10:45:20;;;;;;;9.67;8.70;;;15.60;97.90;;;;;;5029366;28;20881;-71
2021/10/10 10:47:48;;;;;;;11.83;8.67;;;15.70;97.80;;;;;;5030212;28;20561;-71
2021/10/10 10:50:15;;;;;;;10.60;7.97;;;15.90;97.80;;;;;;5030358;28;20445;-71
2021/10/10 10:52:42;;;;;;;9.23;8.33;;;16.00;97.60;;;;;;5028560;28;20465;-71
2021/10/10 10:55:19;;;;;;;10.97;7.90;;;16.10;97.50;;;;;;5028874;28;20912;-71
2021/10/10 10:57:54;;;;;;;11.13;8.80;;;16.20;97.40;;;;;;5030814;28;20480;-71
2021/10/10 11:00:28;;;;;;;9.47;7.83;;;16.30;97.10;;;;;;5030323;28;20414;-72
2021/10/10 11:03:22;;;;;;;9.73;8.00;;;16.40;97.00;;;;;;5029135;28;20559;-72
2021/10/10 11:05:54;;;;;;;8.70;7.80;;;16.50;96.80;;;;;;5022069;28;20584;-71
2021/10/10 11:08:22;;;;;;;11.87;8.27;;;16.50;96.40;;;;;;5041494;28;20394;-72
2021/10/10 11:11:03;;;;;;;8.67;7.80;;;16.40;96.40;;;;;;5030772;28;20425;-72
2021/10/10 11:13:44;;;;;;;8.40;7.57;;;16.40;96.30;;;;;;5016774;28;20461;-71
2021/10/10 11:16:17;;;;;;;9.80;7.70;;;16.40;96.00;;;;;;5020026;28;20544;-72
2021/10/10 11:18:42;;;;;;;9.10;8.23;;;16.40;96.00;;;;;;5030707;28;20440;-72
2021/10/10 11:21:10;;;;;;;9.57;7.37;;;16.50;95.70;;;;;;5030055;28;20419;-72
2021/10/10 11:23:36;;;;;;;9.97;7.47;;;16.60;95.40;;;;;;5018688;28;20645;-70
2021/10/10 11:26:10;;;;;;;9.93;7.13;;;16.70;95.20;;;;;;5030206;28;20444;-72
2021/10/10 11:28:39;;;;;;;12.63;8.30;;;16.70;94.70;;;;;;5030399;28;20501;-71
2021/10/10 11:31:10;;;;;;;13.17;7.50;;;16.60;94.40;;;;;;5032910;28;20462;-72
2021/10/10 11:33:41;;;;;;;8.97;7.13;;;16.70;94.20;;;;;;5033867;28;20989;-71
2021/10/10 11:36:06;;;;;;;9.60;7.63;;;16.60;94.10;;;;;;5020736;27;20438;-71
2021/10/10 11:38:55;;;;;;;10.13;8.00;;;16.60;93.70;;;;;;5033814;28;20421;-72
2021/10/10 11:41:22;;;;;;;11.27;7.23;;;16.40;93.60;;;;;;5024813;28;20650;-72
2021/10/10 11:43:56;;;;;;;11.10;8.70;;;16.50;93.90;;;;;;5021380;28;20437;-72
2021/10/10 11:46:22;;;;;;;8.20;7.40;;;16.40;94.00;;;;;;5026934;28;20552;-72
2021/10/10 11:48:53;;;;;;;8.03;6.93;;;16.30;94.10;;;;;;5033331;28;20453;-72
2021/10/10 11:51:36;;;;;;;9.57;7.90;;;16.20;94.40;;;;;;5033395;28;20210;-71
2021/10/10 11:54:04;;;;;;;8.73;7.73;;;16.30;95.10;;;;;;5031588;28;20432;-71
2021/10/10 11:56:30;;;;;;;9.30;7.67;;;16.40;95.40;;;;;;5033263;28;20433;-72
2021/10/10 11:59:12;;;;;;;8.00;7.20;;;16.50;95.60;;;;;;5025129;27;20498;-70
2021/10/10 12:01:38;;;;;;;9.87;8.83;;;16.60;94.80;;;;;;5026175;28;20270;-71
2021/10/10 12:04:04;;;;;;;8.20;7.50;;;16.50;94.30;;;;;;5022792;28;20558;-71
2021/10/10 12:06:30;;;;;;;10.57;7.70;;;16.50;94.40;;;;;;5019484;28;20448;-71
2021/10/10 12:09:12;;;;;;;9.37;6.97;;;16.50;94.60;;;;;;5021816;27;20453;-72
2021/10/10 12:11:39;;;;;;;8.07;7.00;;;16.40;94.40;;;;;;5021537;27;20251;-71
2021/10/10 12:14:04;;;;;;;9.07;7.60;;;16.20;94.70;;;;;;5018794;28;20421;-72
2021/10/10 12:16:43;;;;;;;9.73;8.73;;;16.20;94.50;;;;;;5025502;28;20451;-72
2021/10/10 12:19:09;;;;;;;8.43;7.33;;;16.10;94.90;;;;;;5029093;28;20182;-72
2021/10/10 12:21:36;;;;;;;8.90;7.57;;;16.10;95.70;;;;;;5029630;28;20417;-71
2021/10/10 12:24:11;;;;;;;8.37;7.57;;;16.10;95.80;;;;;;5023229;27;20528;-72
2021/10/10 12:27:03;;;;;;;8.90;8.00;;;16.00;96.10;;;;;;5014271;28;20802;-72
2021/10/10 12:29:30;;;;;;;9.37;7.30;;;16.00;96.20;;;;;;5015761;28;20428;-72
2021/10/10 12:32:33;;;;;;;8.10;7.40;;;16.00;96.40;;;;;;5019493;28;20521;-72
2021/10/10 12:35:16;;;;;;;9.53;8.23;;;15.90;96.40;;;;;;5017290;27;20473;-72
2021/10/10 12:37:55;;;;;;;8.20;7.40;;;15.90;96.40;;;;;;5014132;28;20414;-73
2021/10/10 12:40:35;;;;;;;8.73;7.83;;;15.90;95.90;;;;;;5022777;28;20421;-72
2021/10/10 12:43:01;;;;;;;9.47;7.27;;;15.80;95.80;;;;;;5020236;28;20493;-72
2021/10/10 12:45:31;;;;;;;10.43;8.20;;;15.80;96.00;;;;;;5011983;27;20529;-72
2021/10/10 12:48:09;;;;;;;8.73;7.83;;;15.80;96.10;;;;;;5011736;28;20160;-72